Airfield :
LOGIN :

Register | Disclaimer

   EN    FR    IT 

 










Legend :    VFR   Marginal VFR   IFR   Intensive IFR   Very Intensive IFR
Visi :
Ceiling :
>= 8 km
>= 3000ft
5 to 8 km
1000 to 3000 ft
1500m to 5 km
500 to 1000 ft
800 to 1500m
200 to 500 ft
< 800m
< 200 ft
Symbols :   Thunderstorms  Fog  Heavy snow  Heavy precipitations  Wind > 20 kt
SIGMETs :     Misc.  Thunderstorms  Icing  Turbulence  Mountain Waves  Volcanic Ashes






- Airport Elevation : 913 ft


LFSX - Luxeuil

CURRENT METAR :
  • 040000Z AUTO 32005KT 290V350 CAVOK 20/12 Q1019

EXPIRED METARs :
  • 031530Z AUTO 26006KT 220V290 CAVOK 30/12 Q1018
  • 032330Z AUTO 30003KT 270V340 CAVOK 20/12 Q1019
  • 032300Z AUTO 32004KT 290V360 CAVOK 20/13 Q1019
  • 032230Z AUTO 31005KT CAVOK 20/13 Q1019
  • 032200Z AUTO 27004KT CAVOK 20/14 Q1019
  • 032130Z AUTO 27004KT CAVOK 20/15 Q1019

Expired Forecast.



MET'MAP, your aeronautical weather chart ! - Copyright ORBIFLY December 2007 - Disclaimer

ORBIFLY MET'MAP TEAM :

Programming & Development : Alexandra Zaïnal
Original concept : Baudouin d'Aumeries
Technical & hardware support : Manuel Goepfert
Assistance : Marc-Olivier Méhu




SOURCES & CREDITS :

   NOAA